Hattiesburg Laurel Regional Airport
KPIB : now visible

Airfield :











YOU CAN JOIN US ON...

 
LOGIN :

Register | Disclaimer

   EN    FR    IT 

 









Legend :    VFR   Marginal VFR   IFR   Intensive IFR   Very Intensive IFR
Visi :
Ceiling :
>= 8 km
>= 3000ft
5 to 8 km
1000 to 3000 ft
1500m to 5 km
500 to 1000 ft
800 to 1500m
200 to 500 ft
< 800m
< 200 ft
Symbols :   Thunderstorms  Fog  Heavy snow  Heavy precipitations  Wind > 20 kt






- Airport Elevation : 298 ft
- IATA code : PIB


KPIB - Hattiesburg Laurel Regional

CURRENT METAR :
  • 180356Z AUTO 05004KT 10SM FEW120 23/23 A3003 RMK AO2 SLP167 T02280228 PNO $

EXPIRED METARs :
  • 180256Z AUTO 04003KT 10SM CLR 23/23 A3003 RMK AO2 SLP166 6//// T02280228 53002 PNO $
  • 180156Z AUTO 05003KT 10SM CLR 23/23 A3002 RMK AO2 SLP163 T02330233 PNO $
  • 180056Z AUTO 05004KT 10SM CLR 23/23 A3003 RMK AO2 SLP165 T02330233 PNO $
  • 172356Z AUTO 09004KT 10SM FEW034 SCT110 24/23 A3002 RMK AO2 TSB07E22RAE46 SLP164 6//// T02390233 10300 20233 50008 PNO $

TAF KPIB
Valid from the 18 at 00:00 until the 19 at 00:00 UTC


180014Z 1800/1824 09007KT P6SM -RA FEW025 SCT060 BKN100
FM181600 09011KT P6SM FEW025 BKN050
KZHU FIR / North America



MET'MAP, your aeronautical weather chart ! - Copyright ORBIFLY December 2007 - Disclaimer

ORBIFLY MET'MAP TEAM :

Programming & Development : Alexandra Zaïnal
Original concept : Baudouin d'Aumeries
Technical & hardware support : Manuel Goepfert
Assistance : Marc-Olivier Méhu




SOURCES & CREDITS :

   NOAA       Earth
Advisory